Time;durP1;ratioP1;P1;durP2;ratioP2;P2;SDS_P1;SDS_P2;PMS_P1;PMS_P2;Temp;Humidity;BMP_temperature;BMP_pressure;BME280_temperature;BME280_humidity;BME280_pressure;Samples;Min_cycle;Max_cycle;Signal;HPM_P1;HPM_P2
2023/02/25 00:01:09;;;;;;;8.43;3.25;;;6.30;1.00;;;;;;5089061;28;20394;-57
2023/02/25 00:03:35;;;;;;;9.23;2.50;;;6.60;1.00;;;;;;5092801;28;20470;-57
2023/02/25 00:06:02;;;;;;;9.13;3.47;;;7.50;1.00;;;;;;5087251;28;20486;-56
2023/02/25 00:08:28;;;;;;;10.65;3.45;;;6.90;1.00;;;;;;5062369;28;20393;-56
2023/02/25 00:10:59;;;;;;;12.15;3.80;;;6.70;1.00;;;;;;5092446;28;20385;-56
2023/02/25 00:13:25;;;;;;;9.82;3.67;;;6.20;1.00;;;;;;5093160;28;20387;-56
2023/02/25 00:15:50;;;;;;;12.63;3.60;;;6.30;1.00;;;;;;5092167;28;20388;-57
2023/02/25 00:18:16;;;;;;;10.23;3.90;;;6.30;1.00;;;;;;5093042;28;20421;-56
2023/02/25 00:20:42;;;;;;;11.07;3.75;;;6.20;1.00;;;;;;5092167;28;20400;-56
2023/02/25 00:23:07;;;;;;;9.10;3.27;;;6.70;1.00;;;;;;5093055;28;20612;-56
2023/02/25 00:25:33;;;;;;;8.77;2.92;;;6.10;1.00;;;;;;5092600;28;20893;-56
2023/02/25 00:27:58;;;;;;;8.50;3.13;;;6.00;99.90;;;;;;5092011;28;20402;-56
2023/02/25 00:30:24;;;;;;;11.30;2.95;;;6.40;99.90;;;;;;5092789;28;20739;-56
2023/02/25 00:32:50;;;;;;;8.67;2.90;;;7.10;99.90;;;;;;5092071;28;20469;-56
2023/02/25 00:35:15;;;;;;;11.20;2.40;;;5.80;99.90;;;;;;5092531;28;20415;-56
2023/02/25 00:37:41;;;;;;;7.90;2.40;;;5.90;99.90;;;;;;5092032;28;20887;-56
2023/02/25 00:40:14;;;;;;;6.70;2.40;;;6.80;99.90;;;;;;5092291;28;20447;-56
2023/02/25 00:42:40;;;;;;;7.70;2.45;;;5.90;99.90;;;;;;5091845;28;20393;-57
2023/02/25 00:45:07;;;;;;;11.57;2.60;;;5.90;99.90;;;;;;5092473;28;20406;-56
2023/02/25 00:47:33;;;;;;;8.75;2.42;;;5.90;99.90;;;;;;5093106;28;20378;-57
2023/02/25 00:49:58;;;;;;;8.75;3.00;;;7.90;99.90;;;;;;5091558;28;20454;-56
2023/02/25 00:52:25;;;;;;;6.40;2.23;;;7.20;99.90;;;;;;5092513;28;20812;-56
2023/02/25 00:54:51;;;;;;;9.85;2.60;;;7.20;1.00;;;;;;5091433;28;20406;-56
2023/02/25 00:57:17;;;;;;;9.95;3.50;;;5.80;1.00;;;;;;5092242;28;20497;-57
2023/02/25 00:59:42;;;;;;;7.40;2.17;;;5.80;1.00;;;;;;5091495;28;20394;-57
2023/02/25 01:02:08;;;;;;;8.90;2.70;;;5.80;1.00;;;;;;5092075;28;20382;-56
2023/02/25 01:04:33;;;;;;;9.13;2.70;;;5.80;1.00;;;;;;5091629;28;20940;-57
2023/02/25 01:06:59;;;;;;;9.43;2.90;;;5.80;1.00;;;;;;5090936;28;20400;-56
2023/02/25 01:09:25;;;;;;;11.80;3.00;;;5.90;1.00;;;;;;5092239;28;20766;-57
2023/02/25 01:11:51;;;;;;;8.27;2.67;;;7.20;1.00;;;;;;5091110;28;20397;-57
2023/02/25 01:14:21;;;;;;;6.47;2.30;;;6.90;99.90;;;;;;5091005;28;20374;-56
2023/02/25 01:16:48;;;;;;;9.00;2.60;;;5.80;99.90;;;;;;5091027;28;20393;-57
2023/02/25 01:19:21;;;;;;;8.43;2.63;;;5.80;99.90;;;;;;5091228;28;20805;-56
2023/02/25 01:21:50;;;;;;;7.53;2.20;;;6.20;99.90;;;;;;5090800;28;20485;-57
2023/02/25 01:24:19;;;;;;;6.93;2.67;;;5.80;99.90;;;;;;5091704;28;20390;-56
2023/02/25 01:26:47;;;;;;;11.73;2.85;;;5.90;99.90;;;;;;5090949;28;20432;-56
2023/02/25 01:29:15;;;;;;;8.30;2.58;;;5.90;99.90;;;;;;5091621;28;20491;-56
2023/02/25 01:31:42;;;;;;;9.83;2.90;;;6.00;99.90;;;;;;5090483;28;20418;-57
2023/02/25 01:34:11;;;;;;;9.00;2.60;;;6.00;99.90;;;;;;5091770;28;20390;-56
2023/02/25 01:36:37;;;;;;;9.27;2.60;;;7.50;99.90;;;;;;5090632;28;20747;-56
2023/02/25 01:39:03;;;;;;;8.13;3.30;;;7.20;99.90;;;;;;5091034;28;20398;-56
2023/02/25 01:41:33;;;;;;;9.90;2.30;;;6.00;99.90;;;;;;5091041;28;20393;-56
2023/02/25 01:44:03;;;;;;;6.97;2.30;;;5.80;99.90;;;;;;5090250;28;20390;-56
2023/02/25 01:46:29;;;;;;;8.73;2.17;;;5.70;99.90;;;;;;5090834;28;20402;-56
2023/02/25 01:48:55;;;;;;;6.35;2.30;;;7.30;99.90;;;;;;5090783;28;20397;-56
2023/02/25 01:51:26;;;;;;;9.18;2.10;;;5.60;99.90;;;;;;5091222;28;20401;-56
2023/02/25 01:53:54;;;;;;;6.47;1.65;;;7.10;99.90;;;;;;5089879;28;20796;-56
2023/02/25 01:56:22;;;;;;;6.45;2.00;;;5.60;99.90;;;;;;5091396;28;20749;-56
2023/02/25 01:58:48;;;;;;;7.70;2.10;;;6.40;99.90;;;;;;5089628;28;20401;-56
2023/02/25 02:01:18;;;;;;;6.32;2.03;;;5.50;99.90;;;;;;5091235;28;20914;-56
2023/02/25 02:03:44;;;;;;;8.50;2.30;;;5.50;99.90;;;;;;5089623;28;20452;-56
2023/02/25 02:06:15;;;;;;;6.60;1.95;;;5.60;99.90;;;;;;5090281;28;20409;-56
2023/02/25 02:08:43;;;;;;;7.80;2.00;;;5.70;99.90;;;;;;5089923;28;20775;-56
2023/02/25 02:11:09;;;;;;;6.30;1.80;;;7.70;99.90;;;;;;5090453;28;20394;-56
2023/02/25 02:13:39;;;;;;;8.95;2.00;;;5.70;99.90;;;;;;5090635;28;20394;-56
2023/02/25 02:16:28;;;;;;;6.83;2.20;;;5.70;99.90;;;;;;5090440;28;20398;-56
2023/02/25 02:19:05;;;;;;;11.15;2.33;;;6.00;99.90;;;;;;5083104;28;20437;-56
2023/02/25 02:21:36;;;;;;;8.38;2.00;;;6.00;99.90;;;;;;5083159;28;20389;-56
2023/02/25 02:24:21;;;;;;;9.60;2.40;;;6.00;99.90;;;;;;5090175;28;20472;-56
2023/02/25 02:27:08;;;;;;;6.33;1.60;;;5.90;99.90;;;;;;5089390;28;20446;-56
2023/02/25 02:29:46;;;;;;;7.90;1.80;;;6.60;99.90;;;;;;5077010;28;20393;-56
2023/02/25 02:32:24;;;;;;;8.70;2.25;;;4.80;99.90;;;;;;5069313;28;20894;-56
2023/02/25 02:35:21;;;;;;;8.18;2.58;;;5.90;99.90;;;;;;5058896;28;20465;-56
2023/02/25 02:38:11;;;;;;;8.45;2.50;;;5.70;99.90;;;;;;5088466;28;20418;-56
2023/02/25 02:40:39;;;;;;;7.50;1.90;;;5.70;99.90;;;;;;5089652;28;20409;-56
2023/02/25 02:43:13;;;;;;;8.00;2.70;;;5.70;99.90;;;;;;5090086;28;20390;-56
2023/02/25 02:45:42;;;;;;;8.60;2.47;;;5.80;99.90;;;;;;5089754;28;20437;-57
2023/02/25 02:48:14;;;;;;;7.00;2.15;;;5.90;99.90;;;;;;5090187;28;20454;-56
2023/02/25 02:50:45;;;;;;;11.82;2.20;;;5.70;99.90;;;;;;5089175;28;20436;-56
2023/02/25 02:53:17;;;;;;;6.50;1.85;;;6.30;99.90;;;;;;5089418;28;20397;-56
2023/02/25 02:55:49;;;;;;;7.57;2.30;;;5.80;99.90;;;;;;5088941;28;20405;-56
2023/02/25 02:58:30;;;;;;;6.97;2.20;;;5.80;99.90;;;;;;5090204;28;20467;-56
2023/02/25 03:01:06;;;;;;;7.82;2.50;;;5.90;99.90;;;;;;5088953;28;20679;-56
2023/02/25 03:03:37;;;;;;;6.63;1.90;;;5.80;99.90;;;;;;5089829;28;20390;-56
2023/02/25 03:06:17;;;;;;;6.63;1.90;;;5.90;99.90;;;;;;5089362;28;20425;-56
2023/02/25 03:08:48;;;;;;;7.35;2.65;;;5.70;99.90;;;;;;5088871;28;20390;-56
2023/02/25 03:11:14;;;;;;;7.00;2.07;;;5.60;99.90;;;;;;5089828;28;20394;-56
2023/02/25 03:13:40;;;;;;;5.70;1.90;;;7.20;99.90;;;;;;5088913;28;20476;-56
2023/02/25 03:16:11;;;;;;;8.25;2.05;;;5.40;99.90;;;;;;5089480;28;20390;-56
2023/02/25 03:19:02;;;;;;;7.32;2.25;;;5.40;99.90;;;;;;5089154;28;20402;-56
2023/02/25 03:21:37;;;;;;;10.30;2.10;;;5.40;99.90;;;;;;5088739;28;20414;-56
2023/02/25 03:24:04;;;;;;;8.65;2.03;;;5.50;99.90;;;;;;5087950;28;20728;-56
2023/02/25 03:26:32;;;;;;;9.38;2.08;;;5.50;99.90;;;;;;5089590;28;20460;-56
2023/02/25 03:28:58;;;;;;;8.45;1.77;;;6.00;99.90;;;;;;5088333;28;20808;-56
2023/02/25 03:31:48;;;;;;;6.50;1.80;;;7.20;99.90;;;;;;5089005;28;20964;-55
2023/02/25 03:34:21;;;;;;;6.78;2.00;;;5.50;99.90;;;;;;5089208;28;20879;-56
2023/02/25 03:36:55;;;;;;;6.60;1.70;;;7.50;99.90;;;;;;5088047;28;20386;-56
2023/02/25 03:39:25;;;;;;;7.17;1.70;;;5.40;99.90;;;;;;5089465;28;20427;-55
2023/02/25 03:41:56;;;;;;;5.97;1.50;;;5.10;99.90;;;;;;5088262;28;21167;-56
2023/02/25 03:44:33;;;;;;;7.43;2.08;;;5.10;99.90;;;;;;5089413;28;20402;-56
2023/02/25 03:47:01;;;;;;;7.32;2.10;;;5.10;99.90;;;;;;5087180;28;21014;-55
2023/02/25 03:49:36;;;;;;;5.93;1.40;;;5.10;99.90;;;;;;5087782;28;20895;-56
2023/02/25 03:52:10;;;;;;;7.38;2.10;;;6.90;99.90;;;;;;5088530;28;20402;-56
2023/02/25 03:54:36;;;;;;;8.45;1.58;;;5.10;99.90;;;;;;5088956;28;20879;-56
2023/02/25 03:57:01;;;;;;;5.00;1.05;;;5.60;99.90;;;;;;5088486;28;20406;-56
2023/02/25 03:59:27;;;;;;;7.00;1.30;;;4.80;99.90;;;;;;5089024;28;20552;-56
2023/02/25 04:01:54;;;;;;;6.78;1.50;;;6.60;99.90;;;;;;5087921;28;20785;-56
2023/02/25 04:04:19;;;;;;;6.47;1.00;;;5.60;99.90;;;;;;5074777;28;20726;-56
2023/02/25 04:06:46;;;;;;;6.00;1.50;;;5.00;68.90;;;;;;5084987;28;20393;-55
2023/02/25 04:09:12;;;;;;;9.25;1.80;;;4.90;64.30;;;;;;5089023;28;20405;-56
2023/02/25 04:11:37;;;;;;;5.30;1.00;;;4.80;55.90;;;;;;5089165;28;20386;-56
2023/02/25 04:14:03;;;;;;;5.80;1.10;;;4.80;42.80;;;;;;5088142;28;20473;-56
2023/02/25 04:16:28;;;;;;;7.63;1.33;;;4.90;27.60;;;;;;5089023;28;20386;-56
2023/02/25 04:18:54;;;;;;;6.25;1.20;;;6.80;15.30;;;;;;5088432;28;20409;-56
2023/02/25 04:21:35;;;;;;;8.27;1.50;;;6.80;17.10;;;;;;5089148;28;20478;-56
2023/02/25 04:24:02;;;;;;;6.55;1.10;;;4.80;15.60;;;;;;5056732;28;20394;-56
2023/02/25 04:26:28;;;;;;;6.50;1.80;;;4.90;14.60;;;;;;5082961;28;20436;-56
2023/02/25 04:28:54;;;;;;;12.60;1.60;;;6.10;6.50;;;;;;5069924;28;20398;-56
2023/02/25 04:31:20;;;;;;;5.30;1.20;;;6.60;1.80;;;;;;5088823;28;20782;-56
2023/02/25 04:33:48;;;;;;;6.38;1.20;;;4.90;1.00;;;;;;5088022;28;20445;-56
2023/02/25 04:36:32;;;;;;;4.80;1.00;;;5.00;2.70;;;;;;5087297;28;20390;-56
2023/02/25 04:39:00;;;;;;;6.93;1.25;;;4.80;1.00;;;;;;5078411;28;20402;-56
2023/02/25 04:41:29;;;;;;;5.43;0.90;;;6.30;1.00;;;;;;5088902;28;20926;-56
2023/02/25 04:43:55;;;;;;;6.30;1.20;;;4.60;1.00;;;;;;5087965;28;20517;-56
2023/02/25 04:46:21;;;;;;;6.80;1.23;;;5.30;1.00;;;;;;5088743;28;20418;-56
2023/02/25 04:48:46;;;;;;;7.88;1.40;;;4.60;1.00;;;;;;5089130;28;20731;-56
2023/02/25 04:51:12;;;;;;;7.00;1.50;;;4.60;1.00;;;;;;5092571;28;20528;-55
2023/02/25 04:53:38;;;;;;;5.67;1.30;;;4.60;1.00;;;;;;5092569;28;20390;-56
2023/02/25 04:56:05;;;;;;;6.45;1.50;;;4.70;1.00;;;;;;5075962;28;20447;-55
2023/02/25 04:58:32;;;;;;;5.20;1.10;;;4.60;1.00;;;;;;5091871;28;20410;-62
2023/02/25 05:01:00;;;;;;;10.35;1.38;;;5.20;1.00;;;;;;5091664;28;20404;-56
2023/02/25 05:03:27;;;;;;;4.65;1.00;;;5.90;1.00;;;;;;5092049;28;20401;-55
2023/02/25 05:05:54;;;;;;;5.60;1.10;;;4.70;1.00;;;;;;5091655;28;20391;-56
2023/02/25 05:08:20;;;;;;;5.68;1.20;;;4.70;1.00;;;;;;5092283;28;20398;-56
2023/02/25 05:10:46;;;;;;;8.07;1.48;;;4.80;1.00;;;;;;5090193;28;20383;-56
2023/02/25 05:13:11;;;;;;;7.20;1.13;;;4.80;1.00;;;;;;5091836;28;20404;-55
2023/02/25 05:15:37;;;;;;;5.50;1.40;;;4.60;1.00;;;;;;5091733;28;20502;-56
2023/02/25 05:18:03;;;;;;;5.95;1.20;;;4.80;1.00;;;;;;5091599;28;20461;-56
2023/02/25 05:20:28;;;;;;;8.50;1.10;;;4.70;1.00;;;;;;5091851;28;20397;-56
2023/02/25 05:22:54;;;;;;;5.40;1.00;;;4.70;1.00;;;;;;5090970;28;20439;-56
2023/02/25 05:25:20;;;;;;;9.23;0.77;;;5.50;1.00;;;;;;5091375;28;20523;-56
2023/02/25 05:27:46;;;;;;;7.03;1.15;;;5.10;1.00;;;;;;5090971;28;20406;-56
2023/02/25 05:30:12;;;;;;;5.37;0.90;;;6.50;1.00;;;;;;5089891;28;20440;-56
2023/02/25 05:32:38;;;;;;;6.30;1.00;;;4.70;1.00;;;;;;5091252;28;20489;-56
2023/02/25 05:35:07;;;;;;;6.13;1.10;;;4.70;1.00;;;;;;5090830;28;20931;-56
2023/02/25 05:37:33;;;;;;;6.05;1.00;;;4.80;1.00;;;;;;5091869;28;20406;-56
2023/02/25 05:40:00;;;;;;;7.57;0.88;;;4.90;1.00;;;;;;5090526;28;20413;-56
2023/02/25 05:42:26;;;;;;;7.65;1.20;;;4.80;1.00;;;;;;5091217;28;20443;-56
2023/02/25 05:44:51;;;;;;;5.05;0.90;;;4.90;1.00;;;;;;5090848;28;20382;-56
2023/02/25 05:47:17;;;;;;;5.13;0.83;;;5.00;1.00;;;;;;5091426;28;20937;-55
2023/02/25 05:49:42;;;;;;;6.00;0.98;;;5.80;1.00;;;;;;5090542;28;20397;-56
2023/02/25 05:52:09;;;;;;;6.65;0.80;;;5.90;1.00;;;;;;5091546;28;20874;-56
2023/02/25 05:54:35;;;;;;;7.47;1.10;;;5.00;1.00;;;;;;5091169;28;20514;-56
2023/02/25 05:57:01;;;;;;;6.50;0.67;;;5.10;1.00;;;;;;5090648;28;21161;-56
2023/02/25 05:59:26;;;;;;;8.60;0.90;;;6.50;1.00;;;;;;5090610;28;20394;-56
2023/02/25 06:01:52;;;;;;;5.63;0.90;;;5.00;1.00;;;;;;5090280;28;20386;-56
2023/02/25 06:04:18;;;;;;;6.37;0.70;;;4.90;1.00;;;;;;5090879;28;20502;-56
2023/02/25 06:06:49;;;;;;;6.30;0.70;;;4.90;1.00;;;;;;5090307;28;20413;-56
2023/02/25 06:09:18;;;;;;;10.20;1.27;;;6.00;1.00;;;;;;5090785;28;20461;-56
2023/02/25 06:11:45;;;;;;;7.30;1.30;;;5.00;1.00;;;;;;5090376;28;20383;-56
2023/02/25 06:14:11;;;;;;;5.63;0.87;;;5.10;1.00;;;;;;5090678;28;20398;-56
2023/02/25 06:16:40;;;;;;;6.30;1.10;;;5.10;1.00;;;;;;5090932;28;20734;-56
2023/02/25 06:19:06;;;;;;;6.67;0.90;;;6.90;1.00;;;;;;5090376;28;20501;-56
2023/02/25 06:21:33;;;;;;;6.60;1.00;;;5.10;1.00;;;;;;5090807;28;20447;-56
2023/02/25 06:24:00;;;;;;;6.47;1.70;;;5.00;1.00;;;;;;5089690;28;20386;-56
2023/02/25 06:26:26;;;;;;;8.55;1.10;;;4.80;1.00;;;;;;5090294;28;20410;-56
2023/02/25 06:28:51;;;;;;;5.50;0.90;;;4.70;1.00;;;;;;5089795;28;20437;-56
2023/02/25 06:31:18;;;;;;;5.57;0.93;;;4.80;1.00;;;;;;5090570;28;20893;-56
2023/02/25 06:33:45;;;;;;;7.30;1.40;;;4.90;1.00;;;;;;5089491;28;20473;-56
2023/02/25 06:36:11;;;;;;;5.20;0.80;;;6.70;1.00;;;;;;5089319;28;20482;-56
2023/02/25 06:38:37;;;;;;;6.10;0.98;;;4.80;1.00;;;;;;5089366;28;20531;-56
2023/02/25 06:41:08;;;;;;;6.57;0.93;;;4.90;1.00;;;;;;5079023;28;20875;-56
2023/02/25 06:43:35;;;;;;;7.13;0.95;;;4.60;1.00;;;;;;5081821;28;20947;-54
2023/02/25 06:46:06;;;;;;;7.60;0.90;;;4.60;1.00;;;;;;5061626;28;20880;-56
2023/02/25 06:48:31;;;;;;;4.50;0.70;;;4.40;1.00;;;;;;5068982;28;20426;-56
2023/02/25 06:50:57;;;;;;;7.78;0.95;;;4.90;1.00;;;;;;5055384;28;20766;-56
2023/02/25 06:53:23;;;;;;;6.50;1.00;;;5.90;1.00;;;;;;5072037;28;20427;-55
2023/02/25 06:55:48;;;;;;;6.95;0.93;;;4.60;1.00;;;;;;5061785;28;20514;-56
2023/02/25 06:58:15;;;;;;;4.68;1.05;;;5.40;1.00;;;;;;5067140;28;20403;-56
2023/02/25 07:00:41;;;;;;;5.27;0.60;;;4.90;1.00;;;;;;5075811;28;20405;-56
2023/02/25 07:03:12;;;;;;;4.40;0.60;;;4.70;1.00;;;;;;5079982;28;20386;-56
2023/02/25 07:05:38;;;;;;;4.40;0.70;;;4.60;1.00;;;;;;5056755;28;20515;-56
2023/02/25 07:08:04;;;;;;;5.63;0.60;;;4.70;1.00;;;;;;5071552;28;20518;-55
2023/02/25 07:10:30;;;;;;;5.57;0.90;;;4.70;1.00;;;;;;5066564;28;20928;-55
2023/02/25 07:12:56;;;;;;;4.28;0.50;;;4.70;1.00;;;;;;5064959;28;20404;-56
2023/02/25 07:15:23;;;;;;;6.00;0.70;;;4.80;1.00;;;;;;5068006;28;20876;-55
2023/02/25 07:17:48;;;;;;;5.20;1.13;;;6.80;1.00;;;;;;5059475;28;20419;-55
2023/02/25 07:20:14;;;;;;;6.90;1.37;;;5.50;1.00;;;;;;5057121;28;20408;-56
2023/02/25 07:22:41;;;;;;;6.93;1.00;;;5.10;1.00;;;;;;5061241;28;20415;-55
2023/02/25 07:25:10;;;;;;;6.50;0.80;;;3.90;1.00;;;;;;5065125;28;20497;-55
2023/02/25 07:27:38;;;;;;;4.60;0.90;;;5.10;1.00;;;;;;5060341;28;20409;-56
2023/02/25 07:30:04;;;;;;;6.30;0.93;;;5.60;1.00;;;;;;5062735;28;20397;-56
2023/02/25 07:32:30;;;;;;;4.70;0.90;;;4.80;1.00;;;;;;5062554;28;20411;-56
2023/02/25 07:34:55;;;;;;;6.00;0.77;;;6.20;1.00;;;;;;5063037;28;20415;-55
2023/02/25 07:37:21;;;;;;;5.20;0.98;;;5.00;1.00;;;;;;5056688;28;20510;-55
2023/02/25 07:39:46;;;;;;;7.03;1.10;;;5.00;1.00;;;;;;5054108;28;20392;-56
2023/02/25 07:42:12;;;;;;;5.30;1.50;;;5.00;1.00;;;;;;5058234;28;20882;-56
2023/02/25 07:44:37;;;;;;;7.03;0.93;;;5.00;1.00;;;;;;5058061;28;20409;-55
2023/02/25 07:47:03;;;;;;;5.60;0.90;;;5.00;1.00;;;;;;5057620;28;20414;-56
2023/02/25 07:49:29;;;;;;;4.90;0.80;;;5.00;1.00;;;;;;5065523;28;20404;-56
2023/02/25 07:51:54;;;;;;;7.20;1.00;;;5.10;1.00;;;;;;5059657;28;20439;-56
2023/02/25 07:54:20;;;;;;;6.30;0.98;;;5.10;1.00;;;;;;5063066;28;20717;-56
2023/02/25 07:56:46;;;;;;;5.70;0.90;;;6.20;1.00;;;;;;5053141;28;20433;-56
2023/02/25 07:59:12;;;;;;;9.93;0.90;;;5.00;1.00;;;;;;5053206;28;20409;-56
2023/02/25 08:01:38;;;;;;;8.65;0.98;;;5.00;1.00;;;;;;5053582;28;20460;-56
2023/02/25 08:04:05;;;;;;;5.45;0.85;;;6.50;1.00;;;;;;5049173;28;20478;-55
2023/02/25 08:06:36;;;;;;;6.75;1.00;;;5.30;1.00;;;;;;5056842;28;20380;-55
2023/02/25 08:09:04;;;;;;;5.80;0.60;;;5.40;1.00;;;;;;5059088;28;20411;-55
2023/02/25 08:11:30;;;;;;;5.70;1.30;;;5.20;1.00;;;;;;5058035;28;20809;-55
2023/02/25 08:13:57;;;;;;;4.90;0.93;;;5.20;1.00;;;;;;5055905;28;20492;-56
2023/02/25 08:16:23;;;;;;;7.22;0.90;;;6.10;1.00;;;;;;5062379;28;20399;-55
2023/02/25 08:18:49;;;;;;;4.97;0.90;;;5.20;1.00;;;;;;5060853;28;20426;-56
2023/02/25 08:21:17;;;;;;;9.40;1.20;;;5.20;1.00;;;;;;5048807;28;20397;-56
2023/02/25 08:23:42;;;;;;;4.37;0.70;;;5.50;1.00;;;;;;5057327;28;20754;-57
2023/02/25 08:26:09;;;;;;;8.35;1.02;;;5.80;1.00;;;;;;5058368;28;20409;-56
2023/02/25 08:28:35;;;;;;;7.10;1.02;;;7.60;1.00;;;;;;5061718;28;20479;-56
2023/02/25 08:31:01;;;;;;;4.50;0.60;;;6.00;1.00;;;;;;5058115;28;20389;-56
2023/02/25 08:33:28;;;;;;;6.20;1.00;;;6.90;1.00;;;;;;5058512;28;20403;-55
2023/02/25 08:35:54;;;;;;;6.90;0.80;;;6.70;1.00;;;;;;5059658;28;20407;-55
2023/02/25 08:38:20;;;;;;;4.50;0.80;;;6.40;1.00;;;;;;5059574;28;20409;-56
2023/02/25 08:40:45;;;;;;;5.60;0.87;;;6.00;1.00;;;;;;5063796;28;20380;-56
2023/02/25 08:43:11;;;;;;;9.00;1.20;;;5.70;1.00;;;;;;5060483;28;20405;-55
2023/02/25 08:45:39;;;;;;;6.03;0.73;;;5.70;1.00;;;;;;5062685;28;20789;-56
2023/02/25 08:48:05;;;;;;;4.80;0.57;;;5.70;1.00;;;;;;5059070;28;20887;-55
2023/02/25 08:50:31;;;;;;;5.70;1.10;;;5.40;1.00;;;;;;5057295;28;20459;-56
2023/02/25 08:52:57;;;;;;;5.50;0.90;;;5.40;1.00;;;;;;5055598;28;20841;-56
2023/02/25 08:55:23;;;;;;;4.90;0.80;;;5.80;1.00;;;;;;5063728;28;20403;-56
2023/02/25 08:57:52;;;;;;;5.43;0.80;;;5.30;1.00;;;;;;5057721;28;20487;-55
2023/02/25 09:00:19;;;;;;;4.85;0.82;;;5.50;1.00;;;;;;5060091;28;20866;-55
2023/02/25 09:02:45;;;;;;;7.75;1.08;;;5.60;1.00;;;;;;5051233;28;20477;-56
2023/02/25 09:05:11;;;;;;;6.50;1.10;;;5.50;1.00;;;;;;5052237;28;20373;-56
2023/02/25 09:07:36;;;;;;;5.50;1.13;;;5.50;1.00;;;;;;5060967;28;20403;-56
2023/02/25 09:10:06;;;;;;;5.10;0.77;;;7.20;1.00;;;;;;5061350;28;20500;-56
2023/02/25 09:12:32;;;;;;;5.90;0.90;;;6.00;1.00;;;;;;5060978;28;20421;-60
2023/02/25 09:14:58;;;;;;;6.25;0.90;;;6.00;1.00;;;;;;5061555;28;20427;-56
2023/02/25 09:17:23;;;;;;;4.82;0.70;;;5.90;1.00;;;;;;5066449;28;20460;-56
2023/02/25 09:19:49;;;;;;;5.40;1.00;;;5.90;99.90;;;;;;5051223;28;20409;-56
2023/02/25 09:22:14;;;;;;;4.60;0.90;;;5.90;99.90;;;;;;5053097;28;20424;-56
2023/02/25 09:24:40;;;;;;;10.10;1.08;;;5.90;99.90;;;;;;5053015;28;20430;-57
2023/02/25 09:27:06;;;;;;;7.73;1.03;;;5.90;99.90;;;;;;5056804;28;20423;-56
2023/02/25 09:29:36;;;;;;;8.60;0.90;;;7.30;99.90;;;;;;5063474;28;20396;-57
2023/02/25 09:32:01;;;;;;;4.65;0.90;;;6.30;99.90;;;;;;5058658;28;20389;-56
2023/02/25 09:34:29;;;;;;;4.30;0.50;;;6.50;99.90;;;;;;5058677;28;20401;-56
2023/02/25 09:36:54;;;;;;;4.67;0.80;;;6.50;99.90;;;;;;5052251;28;20396;-57
2023/02/25 09:39:20;;;;;;;4.50;0.63;;;6.50;99.90;;;;;;5050560;28;20386;-57
2023/02/25 09:42:08;;;;;;;5.07;0.50;;;7.70;99.90;;;;;;5059469;28;20395;-57
2023/02/25 09:44:42;;;;;;;4.30;0.50;;;6.60;99.90;;;;;;5050970;28;20871;-57
2023/02/25 09:47:18;;;;;;;6.47;0.57;;;6.60;99.90;;;;;;5067927;28;20912;-57
2023/02/25 09:50:01;;;;;;;5.60;0.80;;;6.80;99.90;;;;;;5059098;28;20400;-57
2023/02/25 09:52:39;;;;;;;7.82;1.00;;;6.70;99.90;;;;;;5078580;28;20486;-57
2023/02/25 09:55:29;;;;;;;4.50;0.60;;;6.80;99.90;;;;;;5050015;28;20920;-58
2023/02/25 09:58:10;;;;;;;4.30;0.40;;;6.90;99.90;;;;;;5062188;28;20459;-57
2023/02/25 10:00:43;;;;;;;5.60;0.60;;;6.90;99.90;;;;;;5050627;28;20390;-57
2023/02/25 10:04:04;;;;;;;5.30;0.40;;;6.70;99.90;;;;;;5049801;28;20378;-57
2023/02/25 10:06:41;;;;;;;4.80;0.57;;;6.40;99.90;;;;;;5028063;28;20433;-57
2023/02/25 10:09:18;;;;;;;5.00;0.43;;;6.50;99.90;;;;;;5057245;28;20413;-57
2023/02/25 10:11:52;;;;;;;4.40;0.70;;;6.40;99.90;;;;;;5050222;28;20747;-57
2023/02/25 10:14:30;;;;;;;5.78;0.80;;;6.30;99.90;;;;;;5061136;28;20900;-57
2023/02/25 10:17:28;;;;;;;5.30;0.47;;;6.50;99.90;;;;;;5067084;28;20407;-57
2023/02/25 10:20:29;;;;;;;7.63;1.02;;;6.30;99.90;;;;;;5069124;28;20916;-57
2023/02/25 10:23:34;;;;;;;5.85;0.90;;;6.50;99.90;;;;;;5049445;28;20716;-57
2023/02/25 10:26:18;;;;;;;4.90;0.70;;;6.60;99.90;;;;;;5048914;28;20421;-57
2023/02/25 10:28:52;;;;;;;5.25;0.68;;;6.70;99.90;;;;;;5049514;28;20492;-57
2023/02/25 10:31:19;;;;;;;6.18;0.80;;;6.60;99.90;;;;;;5050098;28;20408;-58
2023/02/25 10:33:48;;;;;;;4.93;0.60;;;7.00;99.90;;;;;;5055033;28;20506;-57
2023/02/25 10:36:40;;;;;;;6.50;1.10;;;7.10;99.90;;;;;;5058394;28;20404;-57
2023/02/25 10:39:09;;;;;;;4.80;0.90;;;6.80;99.90;;;;;;5056049;28;20420;-58
2023/02/25 10:41:35;;;;;;;5.70;0.75;;;7.50;99.90;;;;;;5055652;28;20461;-57
2023/02/25 10:44:01;;;;;;;5.80;1.00;;;7.40;99.90;;;;;;5059525;28;20888;-58
2023/02/25 10:46:40;;;;;;;8.50;0.90;;;6.50;99.90;;;;;;5058243;28;20875;-58
2023/02/25 10:49:22;;;;;;;5.50;0.70;;;6.70;99.90;;;;;;5061903;28;20395;-57
2023/02/25 10:52:05;;;;;;;4.53;0.70;;;7.20;99.90;;;;;;5055267;28;20431;-58
2023/02/25 10:54:43;;;;;;;5.60;0.70;;;7.80;99.90;;;;;;5061870;28;20423;-57
2023/02/25 10:57:14;;;;;;;6.20;0.80;;;8.20;99.90;;;;;;5059838;28;20472;-58
2023/02/25 10:59:41;;;;;;;4.32;0.50;;;8.30;99.90;;;;;;5056337;28;21223;-57
2023/02/25 11:02:42;;;;;;;5.53;0.80;;;8.20;99.90;;;;;;5056699;28;20441;-57
2023/02/25 11:05:31;;;;;;;7.10;1.00;;;8.10;99.90;;;;;;5016830;28;21001;-57
2023/02/25 11:07:57;;;;;;;4.70;0.70;;;8.20;99.90;;;;;;5054238;28;20831;-58
2023/02/25 11:10:23;;;;;;;6.28;1.27;;;7.60;99.90;;;;;;5053391;28;20415;-57
2023/02/25 11:12:55;;;;;;;5.50;0.88;;;7.20;99.90;;;;;;5055187;28;21033;-57
2023/02/25 11:15:27;;;;;;;6.40;0.90;;;6.90;99.90;;;;;;5064781;28;20458;-57
2023/02/25 11:17:57;;;;;;;8.40;1.30;;;6.70;99.90;;;;;;5066418;28;20445;-58
2023/02/25 11:20:26;;;;;;;4.68;0.77;;;6.70;99.90;;;;;;5062643;28;20388;-57
2023/02/25 11:22:54;;;;;;;5.10;0.83;;;6.50;99.90;;;;;;5061568;28;20756;-57
2023/02/25 11:25:39;;;;;;;5.68;1.35;;;6.80;99.90;;;;;;5056742;28;20460;-57
2023/02/25 11:28:16;;;;;;;5.30;0.80;;;6.70;99.90;;;;;;5059983;28;20424;-58
2023/02/25 11:30:43;;;;;;;4.65;0.80;;;6.80;99.90;;;;;;5054836;28;20393;-57
2023/02/25 11:33:27;;;;;;;7.05;1.10;;;6.80;99.90;;;;;;5057870;28;20401;-57
2023/02/25 11:35:58;;;;;;;5.40;0.80;;;6.90;99.90;;;;;;5078727;28;20409;-57
2023/02/25 11:38:28;;;;;;;5.43;0.85;;;7.30;99.90;;;;;;5058160;28;20407;-57
2023/02/25 11:40:54;;;;;;;7.00;1.10;;;6.70;99.90;;;;;;5065671;28;20400;-57
2023/02/25 11:43:30;;;;;;;5.93;1.00;;;6.90;99.90;;;;;;5048765;28;20412;-57
2023/02/25 11:46:07;;;;;;;5.93;0.70;;;6.80;99.90;;;;;;5056000;28;20403;-57
2023/02/25 11:48:53;;;;;;;4.75;0.90;;;7.10;99.90;;;;;;5079342;28;20471;-57
2023/02/25 11:51:37;;;;;;;5.43;1.02;;;6.60;99.90;;;;;;5062571;28;20423;-57
2023/02/25 11:54:24;;;;;;;4.90;0.70;;;6.50;99.90;;;;;;5063764;28;20485;-57
2023/02/25 11:57:16;;;;;;;6.13;1.20;;;6.40;99.90;;;;;;5047998;28;20894;-57
2023/02/25 12:00:05;;;;;;;6.20;1.08;;;6.30;99.90;;;;;;5062605;28;20406;-57
2023/02/25 12:02:36;;;;;;;6.50;1.07;;;6.00;99.90;;;;;;5058145;28;20427;-57
2023/02/25 12:05:35;;;;;;;5.50;1.08;;;6.10;99.90;;;;;;5060975;28;20757;-57
2023/02/25 12:08:15;;;;;;;4.93;0.90;;;6.00;99.90;;;;;;5069199;28;20387;-58
2023/02/25 12:10:59;;;;;;;8.13;1.23;;;5.90;99.90;;;;;;5070344;28;20402;-57
2023/02/25 12:13:33;;;;;;;5.22;1.00;;;6.00;99.90;;;;;;5066724;28;20943;-57
2023/02/25 12:16:17;;;;;;;8.90;1.10;;;6.00;99.90;;;;;;5069428;28;20466;-56
2023/02/25 12:19:21;;;;;;;5.47;1.17;;;5.90;99.90;;;;;;5066616;28;20410;-56
2023/02/25 12:22:13;;;;;;;6.10;1.30;;;6.00;99.90;;;;;;5060169;28;20444;-57
2023/02/25 12:25:11;;;;;;;7.50;1.63;;;6.10;99.90;;;;;;5057221;28;20557;-57
2023/02/25 12:27:54;;;;;;;5.88;1.23;;;6.10;99.90;;;;;;5053297;28;20835;-56
2023/02/25 12:30:45;;;;;;;5.63;0.88;;;5.70;99.90;;;;;;5058323;28;20401;-58
2023/02/25 12:33:49;;;;;;;5.65;1.13;;;5.40;99.90;;;;;;5054007;28;20405;-58
2023/02/25 12:36:45;;;;;;;7.60;1.50;;;5.40;99.90;;;;;;5050892;28;20444;-57
2023/02/25 12:39:29;;;;;;;7.88;1.35;;;5.40;99.90;;;;;;5051489;28;20459;-58
2023/02/25 12:41:54;;;;;;;5.70;1.10;;;5.60;1.00;;;;;;5051729;28;20404;-58
2023/02/25 12:44:55;;;;;;;6.63;1.30;;;5.70;99.90;;;;;;5058726;28;20761;-58
2023/02/25 12:47:37;;;;;;;7.53;1.42;;;5.90;99.90;;;;;;5071801;28;20386;-58
2023/02/25 12:50:31;;;;;;;7.40;0.82;;;5.90;99.90;;;;;;5054048;28;20456;-58
2023/02/25 12:53:08;;;;;;;4.90;0.90;;;6.10;99.90;;;;;;5051261;28;20519;-58
2023/02/25 12:56:05;;;;;;;8.07;1.40;;;7.30;99.90;;;;;;5051757;28;20416;-58
2023/02/25 12:58:49;;;;;;;5.18;0.70;;;6.00;99.90;;;;;;5050952;28;20805;-58
2023/02/25 13:01:33;;;;;;;4.63;0.75;;;5.60;99.90;;;;;;5051704;28;20551;-55
2023/02/25 13:04:07;;;;;;;6.55;1.10;;;5.90;99.90;;;;;;5060743;28;20556;-55
2023/02/25 13:06:54;;;;;;;6.13;1.20;;;5.50;99.90;;;;;;5058043;28;20453;-56
2023/02/25 13:09:24;;;;;;;6.47;1.38;;;5.40;99.90;;;;;;5050813;28;20477;-56
2023/02/25 13:11:56;;;;;;;5.90;0.90;;;6.60;1.00;;;;;;5051150;28;20409;-56
2023/02/25 13:14:31;;;;;;;8.57;1.60;;;5.60;1.00;;;;;;5051627;28;20392;-56
2023/02/25 13:17:43;;;;;;;5.70;1.20;;;5.70;1.00;;;;;;5050737;28;20886;-56
2023/02/25 13:20:23;;;;;;;5.70;1.05;;;5.50;1.00;;;;;;5063394;28;20414;-56
2023/02/25 13:23:00;;;;;;;6.60;1.00;;;5.40;99.90;;;;;;5061956;28;20404;-56